sensor_id;sensor_type;location;lat;lon;timestamp;P1;durP1;ratioP1;P2;durP2;ratioP2
19804;SDS011;10062;51.052;13.756;2024-03-08T00:02:13;35.33;;;18.10;;
19804;SDS011;10062;51.052;13.756;2024-03-08T00:04:45;34.10;;;18.03;;
19804;SDS011;10062;51.052;13.756;2024-03-08T00:07:17;40.17;;;18.10;;
19804;SDS011;10062;51.052;13.756;2024-03-08T00:09:50;34.20;;;16.93;;
19804;SDS011;10062;51.052;13.756;2024-03-08T00:12:23;36.27;;;18.00;;
19804;SDS011;10062;51.052;13.756;2024-03-08T00:14:55;35.10;;;18.03;;
19804;SDS011;10062;51.052;13.756;2024-03-08T00:17:28;37.13;;;18.83;;
19804;SDS011;10062;51.052;13.756;2024-03-08T00:20:01;36.00;;;18.40;;
19804;SDS011;10062;51.052;13.756;2024-03-08T00:22:38;32.63;;;18.27;;
19804;SDS011;10062;51.052;13.756;2024-03-08T00:25:10;33.87;;;16.97;;
19804;SDS011;10062;51.052;13.756;2024-03-08T00:27:44;38.87;;;18.13;;
19804;SDS011;10062;51.052;13.756;2024-03-08T00:30:19;33.43;;;16.73;;
19804;SDS011;10062;51.052;13.756;2024-03-08T00:32:52;36.37;;;17.63;;
19804;SDS011;10062;51.052;13.756;2024-03-08T00:35:24;36.83;;;16.53;;
19804;SDS011;10062;51.052;13.756;2024-03-08T00:37:57;37.57;;;16.40;;
19804;SDS011;10062;51.052;13.756;2024-03-08T00:40:29;29.83;;;16.30;;
19804;SDS011;10062;51.052;13.756;2024-03-08T00:43:02;31.07;;;16.57;;
19804;SDS011;10062;51.052;13.756;2024-03-08T00:45:34;36.67;;;17.90;;
19804;SDS011;10062;51.052;13.756;2024-03-08T00:48:07;34.13;;;16.77;;
19804;SDS011;10062;51.052;13.756;2024-03-08T00:50:39;35.37;;;18.17;;
19804;SDS011;10062;51.052;13.756;2024-03-08T00:53:11;33.23;;;17.00;;
19804;SDS011;10062;51.052;13.756;2024-03-08T00:55:43;33.83;;;19.10;;
19804;SDS011;10062;51.052;13.756;2024-03-08T00:58:17;35.03;;;18.47;;
19804;SDS011;10062;51.052;13.756;2024-03-08T01:00:49;35.07;;;18.27;;
19804;SDS011;10062;51.052;13.756;2024-03-08T01:03:22;33.10;;;17.00;;
19804;SDS011;10062;51.052;13.756;2024-03-08T01:05:54;39.00;;;18.57;;
19804;SDS011;10062;51.052;13.756;2024-03-08T01:08:26;36.97;;;17.70;;
19804;SDS011;10062;51.052;13.756;2024-03-08T01:10:58;34.97;;;17.53;;
19804;SDS011;10062;51.052;13.756;2024-03-08T01:13:31;31.03;;;17.47;;
19804;SDS011;10062;51.052;13.756;2024-03-08T01:16:03;33.07;;;16.50;;
19804;SDS011;10062;51.052;13.756;2024-03-08T01:18:35;35.53;;;16.40;;
19804;SDS011;10062;51.052;13.756;2024-03-08T01:21:07;38.40;;;17.43;;
19804;SDS011;10062;51.052;13.756;2024-03-08T01:23:39;33.13;;;17.57;;
19804;SDS011;10062;51.052;13.756;2024-03-08T01:26:12;34.53;;;17.23;;
19804;SDS011;10062;51.052;13.756;2024-03-08T01:28:46;33.50;;;17.67;;
19804;SDS011;10062;51.052;13.756;2024-03-08T01:31:18;35.47;;;17.23;;
19804;SDS011;10062;51.052;13.756;2024-03-08T01:33:50;35.43;;;18.13;;
19804;SDS011;10062;51.052;13.756;2024-03-08T01:36:23;34.37;;;17.27;;
19804;SDS011;10062;51.052;13.756;2024-03-08T01:38:55;37.10;;;18.53;;
19804;SDS011;10062;51.052;13.756;2024-03-08T01:41:27;37.10;;;17.60;;
19804;SDS011;10062;51.052;13.756;2024-03-08T01:44:01;39.07;;;19.57;;
19804;SDS011;10062;51.052;13.756;2024-03-08T01:46:33;33.27;;;16.90;;
19804;SDS011;10062;51.052;13.756;2024-03-08T01:49:06;38.83;;;17.80;;
19804;SDS011;10062;51.052;13.756;2024-03-08T01:51:38;36.23;;;18.30;;
19804;SDS011;10062;51.052;13.756;2024-03-08T01:54:11;38.23;;;18.17;;
19804;SDS011;10062;51.052;13.756;2024-03-08T01:56:43;37.07;;;17.17;;
19804;SDS011;10062;51.052;13.756;2024-03-08T01:59:16;37.40;;;18.17;;
19804;SDS011;10062;51.052;13.756;2024-03-08T02:01:49;37.37;;;18.33;;
19804;SDS011;10062;51.052;13.756;2024-03-08T02:04:22;42.23;;;19.30;;
19804;SDS011;10062;51.052;13.756;2024-03-08T02:06:54;37.07;;;19.07;;
19804;SDS011;10062;51.052;13.756;2024-03-08T02:09:28;32.40;;;17.10;;
19804;SDS011;10062;51.052;13.756;2024-03-08T02:11:59;36.13;;;19.20;;
19804;SDS011;10062;51.052;13.756;2024-03-08T02:14:38;33.47;;;17.77;;
19804;SDS011;10062;51.052;13.756;2024-03-08T02:17:10;37.93;;;18.43;;
19804;SDS011;10062;51.052;13.756;2024-03-08T02:19:43;33.70;;;18.00;;
19804;SDS011;10062;51.052;13.756;2024-03-08T02:22:16;34.83;;;18.27;;
19804;SDS011;10062;51.052;13.756;2024-03-08T02:24:48;40.17;;;18.70;;
19804;SDS011;10062;51.052;13.756;2024-03-08T02:27:23;32.23;;;17.03;;
19804;SDS011;10062;51.052;13.756;2024-03-08T02:30:10;34.73;;;18.80;;
19804;SDS011;10062;51.052;13.756;2024-03-08T02:32:43;37.63;;;18.43;;
19804;SDS011;10062;51.052;13.756;2024-03-08T02:35:15;36.60;;;17.97;;
19804;SDS011;10062;51.052;13.756;2024-03-08T02:37:49;35.07;;;18.20;;
19804;SDS011;10062;51.052;13.756;2024-03-08T02:40:21;38.33;;;19.13;;
19804;SDS011;10062;51.052;13.756;2024-03-08T02:42:53;38.30;;;18.37;;
19804;SDS011;10062;51.052;13.756;2024-03-08T02:45:25;37.37;;;19.30;;
19804;SDS011;10062;51.052;13.756;2024-03-08T02:47:57;38.07;;;18.27;;
19804;SDS011;10062;51.052;13.756;2024-03-08T02:50:29;37.10;;;18.57;;
19804;SDS011;10062;51.052;13.756;2024-03-08T02:53:02;38.40;;;19.93;;
19804;SDS011;10062;51.052;13.756;2024-03-08T02:55:35;34.70;;;18.30;;
19804;SDS011;10062;51.052;13.756;2024-03-08T02:58:07;42.10;;;19.43;;
19804;SDS011;10062;51.052;13.756;2024-03-08T03:00:40;34.57;;;18.00;;
19804;SDS011;10062;51.052;13.756;2024-03-08T03:03:14;36.90;;;17.43;;
19804;SDS011;10062;51.052;13.756;2024-03-08T03:05:46;38.23;;;18.73;;
19804;SDS011;10062;51.052;13.756;2024-03-08T03:08:19;41.73;;;19.60;;
19804;SDS011;10062;51.052;13.756;2024-03-08T03:10:51;40.67;;;19.07;;
19804;SDS011;10062;51.052;13.756;2024-03-08T03:13:23;35.63;;;17.67;;
19804;SDS011;10062;51.052;13.756;2024-03-08T03:15:55;35.93;;;18.57;;
19804;SDS011;10062;51.052;13.756;2024-03-08T03:18:28;40.00;;;19.60;;
19804;SDS011;10062;51.052;13.756;2024-03-08T03:21:00;40.97;;;19.07;;
19804;SDS011;10062;51.052;13.756;2024-03-08T03:23:38;37.53;;;19.03;;
19804;SDS011;10062;51.052;13.756;2024-03-08T03:26:11;40.13;;;17.10;;
19804;SDS011;10062;51.052;13.756;2024-03-08T03:28:47;40.77;;;18.90;;
19804;SDS011;10062;51.052;13.756;2024-03-08T03:31:19;37.20;;;19.63;;
19804;SDS011;10062;51.052;13.756;2024-03-08T03:33:54;34.33;;;16.77;;
19804;SDS011;10062;51.052;13.756;2024-03-08T03:36:31;33.63;;;17.17;;
19804;SDS011;10062;51.052;13.756;2024-03-08T03:39:06;39.80;;;18.57;;
19804;SDS011;10062;51.052;13.756;2024-03-08T03:41:40;37.30;;;16.03;;
19804;SDS011;10062;51.052;13.756;2024-03-08T03:44:14;32.27;;;17.00;;
19804;SDS011;10062;51.052;13.756;2024-03-08T03:46:46;34.73;;;18.17;;
19804;SDS011;10062;51.052;13.756;2024-03-08T03:49:18;36.30;;;17.00;;
19804;SDS011;10062;51.052;13.756;2024-03-08T03:51:50;39.73;;;18.33;;
19804;SDS011;10062;51.052;13.756;2024-03-08T03:54:24;37.37;;;17.63;;
19804;SDS011;10062;51.052;13.756;2024-03-08T03:56:56;36.97;;;17.97;;
19804;SDS011;10062;51.052;13.756;2024-03-08T03:59:28;36.13;;;18.43;;
19804;SDS011;10062;51.052;13.756;2024-03-08T04:02:00;40.30;;;19.07;;
19804;SDS011;10062;51.052;13.756;2024-03-08T04:04:33;35.53;;;17.03;;
19804;SDS011;10062;51.052;13.756;2024-03-08T04:07:06;43.20;;;19.20;;
19804;SDS011;10062;51.052;13.756;2024-03-08T04:09:39;38.10;;;17.60;;
19804;SDS011;10062;51.052;13.756;2024-03-08T04:12:11;35.47;;;17.37;;
19804;SDS011;10062;51.052;13.756;2024-03-08T04:14:43;39.23;;;18.20;;
19804;SDS011;10062;51.052;13.756;2024-03-08T04:17:15;37.87;;;17.73;;
19804;SDS011;10062;51.052;13.756;2024-03-08T04:19:48;37.70;;;18.33;;
19804;SDS011;10062;51.052;13.756;2024-03-08T04:22:20;34.37;;;17.90;;
19804;SDS011;10062;51.052;13.756;2024-03-08T04:24:54;35.37;;;16.47;;
19804;SDS011;10062;51.052;13.756;2024-03-08T04:27:26;35.83;;;17.27;;
19804;SDS011;10062;51.052;13.756;2024-03-08T04:29:58;36.13;;;16.67;;
19804;SDS011;10062;51.052;13.756;2024-03-08T04:32:30;41.47;;;20.77;;
19804;SDS011;10062;51.052;13.756;2024-03-08T04:35:02;35.47;;;17.30;;
19804;SDS011;10062;51.052;13.756;2024-03-08T04:37:34;38.70;;;17.63;;
19804;SDS011;10062;51.052;13.756;2024-03-08T04:40:08;42.70;;;22.50;;
19804;SDS011;10062;51.052;13.756;2024-03-08T04:42:40;37.03;;;17.80;;
19804;SDS011;10062;51.052;13.756;2024-03-08T04:45:14;36.23;;;18.77;;
19804;SDS011;10062;51.052;13.756;2024-03-08T04:47:46;41.13;;;18.03;;
19804;SDS011;10062;51.052;13.756;2024-03-08T04:50:18;39.07;;;17.70;;
19804;SDS011;10062;51.052;13.756;2024-03-08T04:52:50;33.83;;;16.17;;
19804;SDS011;10062;51.052;13.756;2024-03-08T04:55:23;36.37;;;17.13;;
19804;SDS011;10062;51.052;13.756;2024-03-08T04:57:55;37.00;;;18.87;;
19804;SDS011;10062;51.052;13.756;2024-03-08T05:00:27;33.83;;;17.80;;
19804;SDS011;10062;51.052;13.756;2024-03-08T05:03:00;41.57;;;20.47;;
19804;SDS011;10062;51.052;13.756;2024-03-08T05:05:32;36.43;;;18.83;;
19804;SDS011;10062;51.052;13.756;2024-03-08T05:08:05;41.53;;;18.70;;
19804;SDS011;10062;51.052;13.756;2024-03-08T05:10:38;42.97;;;18.80;;
19804;SDS011;10062;51.052;13.756;2024-03-08T05:13:10;42.33;;;18.53;;
19804;SDS011;10062;51.052;13.756;2024-03-08T05:15:43;38.40;;;18.40;;
19804;SDS011;10062;51.052;13.756;2024-03-08T05:18:15;43.13;;;20.07;;
19804;SDS011;10062;51.052;13.756;2024-03-08T05:20:47;35.30;;;18.93;;
19804;SDS011;10062;51.052;13.756;2024-03-08T05:23:19;42.23;;;18.87;;
19804;SDS011;10062;51.052;13.756;2024-03-08T05:25:53;36.63;;;19.00;;
19804;SDS011;10062;51.052;13.756;2024-03-08T05:28:25;40.47;;;19.67;;
19804;SDS011;10062;51.052;13.756;2024-03-08T05:30:57;43.47;;;19.70;;
19804;SDS011;10062;51.052;13.756;2024-03-08T05:33:30;33.10;;;17.53;;
19804;SDS011;10062;51.052;13.756;2024-03-08T05:36:02;43.57;;;19.07;;
19804;SDS011;10062;51.052;13.756;2024-03-08T05:38:34;34.77;;;18.33;;
19804;SDS011;10062;51.052;13.756;2024-03-08T05:41:07;39.47;;;19.20;;
19804;SDS011;10062;51.052;13.756;2024-03-08T05:43:40;40.07;;;19.47;;
19804;SDS011;10062;51.052;13.756;2024-03-08T05:46:15;37.93;;;17.73;;
19804;SDS011;10062;51.052;13.756;2024-03-08T05:48:48;39.80;;;19.13;;
19804;SDS011;10062;51.052;13.756;2024-03-08T05:51:20;37.53;;;17.90;;
19804;SDS011;10062;51.052;13.756;2024-03-08T05:53:52;44.37;;;20.03;;
19804;SDS011;10062;51.052;13.756;2024-03-08T05:56:27;36.70;;;18.03;;
19804;SDS011;10062;51.052;13.756;2024-03-08T05:58:59;41.50;;;20.27;;
19804;SDS011;10062;51.052;13.756;2024-03-08T06:01:31;47.07;;;18.33;;
19804;SDS011;10062;51.052;13.756;2024-03-08T06:04:06;39.47;;;19.67;;
19804;SDS011;10062;51.052;13.756;2024-03-08T06:06:38;34.47;;;18.13;;
19804;SDS011;10062;51.052;13.756;2024-03-08T06:09:10;40.13;;;18.93;;
19804;SDS011;10062;51.052;13.756;2024-03-08T06:11:48;39.10;;;19.77;;
19804;SDS011;10062;51.052;13.756;2024-03-08T06:14:20;40.00;;;19.30;;
19804;SDS011;10062;51.052;13.756;2024-03-08T06:16:51;37.43;;;19.20;;
19804;SDS011;10062;51.052;13.756;2024-03-08T06:19:23;39.23;;;19.37;;
19804;SDS011;10062;51.052;13.756;2024-03-08T06:21:56;43.60;;;20.70;;
19804;SDS011;10062;51.052;13.756;2024-03-08T06:24:28;44.27;;;19.53;;
19804;SDS011;10062;51.052;13.756;2024-03-08T06:27:02;40.70;;;19.90;;
19804;SDS011;10062;51.052;13.756;2024-03-08T06:29:34;37.27;;;19.20;;
19804;SDS011;10062;51.052;13.756;2024-03-08T06:32:06;40.43;;;19.47;;
19804;SDS011;10062;51.052;13.756;2024-03-08T06:34:38;37.47;;;19.60;;
19804;SDS011;10062;51.052;13.756;2024-03-08T06:37:10;44.40;;;21.17;;
19804;SDS011;10062;51.052;13.756;2024-03-08T06:39:44;47.33;;;21.77;;
19804;SDS011;10062;51.052;13.756;2024-03-08T06:42:17;40.67;;;19.90;;
19804;SDS011;10062;51.052;13.756;2024-03-08T06:44:50;34.23;;;18.53;;
19804;SDS011;10062;51.052;13.756;2024-03-08T06:47:25;47.87;;;21.73;;
19804;SDS011;10062;51.052;13.756;2024-03-08T06:49:57;43.40;;;19.43;;
19804;SDS011;10062;51.052;13.756;2024-03-08T06:52:29;40.77;;;20.97;;
19804;SDS011;10062;51.052;13.756;2024-03-08T06:55:01;46.33;;;22.40;;
19804;SDS011;10062;51.052;13.756;2024-03-08T06:57:36;38.33;;;21.00;;
19804;SDS011;10062;51.052;13.756;2024-03-08T07:00:09;41.77;;;20.30;;
19804;SDS011;10062;51.052;13.756;2024-03-08T07:02:43;43.47;;;22.20;;
19804;SDS011;10062;51.052;13.756;2024-03-08T07:05:16;44.57;;;21.70;;
19804;SDS011;10062;51.052;13.756;2024-03-08T07:07:48;42.17;;;20.40;;
19804;SDS011;10062;51.052;13.756;2024-03-08T07:10:21;38.83;;;21.00;;
19804;SDS011;10062;51.052;13.756;2024-03-08T07:12:55;46.30;;;22.43;;
19804;SDS011;10062;51.052;13.756;2024-03-08T07:15:27;42.90;;;21.60;;
19804;SDS011;10062;51.052;13.756;2024-03-08T07:17:59;38.83;;;19.47;;
19804;SDS011;10062;51.052;13.756;2024-03-08T07:20:31;47.17;;;22.23;;
19804;SDS011;10062;51.052;13.756;2024-03-08T07:23:04;36.53;;;19.53;;
19804;SDS011;10062;51.052;13.756;2024-03-08T07:25:38;41.67;;;20.37;;
19804;SDS011;10062;51.052;13.756;2024-03-08T07:28:13;39.33;;;20.57;;
19804;SDS011;10062;51.052;13.756;2024-03-08T07:30:45;39.00;;;21.00;;
19804;SDS011;10062;51.052;13.756;2024-03-08T07:33:26;39.60;;;20.17;;
19804;SDS011;10062;51.052;13.756;2024-03-08T07:35:58;41.43;;;21.13;;
19804;SDS011;10062;51.052;13.756;2024-03-08T07:38:30;40.93;;;21.47;;
19804;SDS011;10062;51.052;13.756;2024-03-08T07:41:02;42.83;;;19.60;;
19804;SDS011;10062;51.052;13.756;2024-03-08T07:43:35;39.43;;;21.53;;
19804;SDS011;10062;51.052;13.756;2024-03-08T07:46:07;40.33;;;21.27;;
19804;SDS011;10062;51.052;13.756;2024-03-08T07:48:40;35.17;;;20.40;;
19804;SDS011;10062;51.052;13.756;2024-03-08T07:51:12;38.50;;;20.57;;
19804;SDS011;10062;51.052;13.756;2024-03-08T07:53:47;37.93;;;21.00;;
19804;SDS011;10062;51.052;13.756;2024-03-08T07:56:19;42.37;;;20.10;;
19804;SDS011;10062;51.052;13.756;2024-03-08T07:58:53;40.33;;;20.67;;
19804;SDS011;10062;51.052;13.756;2024-03-08T08:01:25;37.87;;;19.47;;
19804;SDS011;10062;51.052;13.756;2024-03-08T08:03:57;37.93;;;20.30;;
19804;SDS011;10062;51.052;13.756;2024-03-08T08:06:29;37.33;;;20.27;;
19804;SDS011;10062;51.052;13.756;2024-03-08T08:09:02;38.33;;;18.47;;
19804;SDS011;10062;51.052;13.756;2024-03-08T08:11:33;34.97;;;20.17;;
19804;SDS011;10062;51.052;13.756;2024-03-08T08:14:07;37.27;;;19.50;;
19804;SDS011;10062;51.052;13.756;2024-03-08T08:16:39;34.17;;;19.03;;
19804;SDS011;10062;51.052;13.756;2024-03-08T08:19:12;32.67;;;17.83;;
19804;SDS011;10062;51.052;13.756;2024-03-08T08:21:45;33.00;;;19.10;;
19804;SDS011;10062;51.052;13.756;2024-03-08T08:24:17;34.20;;;18.33;;
19804;SDS011;10062;51.052;13.756;2024-03-08T08:26:50;34.73;;;18.17;;
19804;SDS011;10062;51.052;13.756;2024-03-08T08:29:24;33.37;;;19.50;;
19804;SDS011;10062;51.052;13.756;2024-03-08T08:31:57;32.40;;;18.37;;
19804;SDS011;10062;51.052;13.756;2024-03-08T08:34:29;30.03;;;18.53;;
19804;SDS011;10062;51.052;13.756;2024-03-08T08:37:01;38.57;;;18.50;;
19804;SDS011;10062;51.052;13.756;2024-03-08T08:39:33;34.47;;;19.07;;
19804;SDS011;10062;51.052;13.756;2024-03-08T08:42:05;31.33;;;17.93;;
19804;SDS011;10062;51.052;13.756;2024-03-08T08:44:40;37.63;;;19.70;;
19804;SDS011;10062;51.052;13.756;2024-03-08T08:47:12;30.47;;;17.43;;
19804;SDS011;10062;51.052;13.756;2024-03-08T08:49:44;30.43;;;18.10;;
19804;SDS011;10062;51.052;13.756;2024-03-08T08:52:17;33.23;;;18.87;;
19804;SDS011;10062;51.052;13.756;2024-03-08T08:54:49;27.97;;;16.40;;
19804;SDS011;10062;51.052;13.756;2024-03-08T08:57:21;29.73;;;16.50;;
19804;SDS011;10062;51.052;13.756;2024-03-08T08:59:55;28.60;;;16.33;;
19804;SDS011;10062;51.052;13.756;2024-03-08T09:02:27;25.27;;;15.47;;
19804;SDS011;10062;51.052;13.756;2024-03-08T09:04:59;30.53;;;17.90;;
19804;SDS011;10062;51.052;13.756;2024-03-08T09:07:32;26.50;;;15.23;;
19804;SDS011;10062;51.052;13.756;2024-03-08T09:10:04;34.13;;;18.13;;
19804;SDS011;10062;51.052;13.756;2024-03-08T09:12:36;30.33;;;17.43;;
19804;SDS011;10062;51.052;13.756;2024-03-08T09:15:10;28.43;;;17.23;;
19804;SDS011;10062;51.052;13.756;2024-03-08T09:17:42;32.03;;;15.07;;
19804;SDS011;10062;51.052;13.756;2024-03-08T09:20:14;29.40;;;17.67;;
19804;SDS011;10062;51.052;13.756;2024-03-08T09:22:47;27.93;;;16.27;;
19804;SDS011;10062;51.052;13.756;2024-03-08T09:25:19;23.97;;;14.40;;
19804;SDS011;10062;51.052;13.756;2024-03-08T09:27:52;23.97;;;14.90;;
19804;SDS011;10062;51.052;13.756;2024-03-08T09:30:26;30.07;;;18.10;;
19804;SDS011;10062;51.052;13.756;2024-03-08T09:32:58;20.87;;;10.17;;
19804;SDS011;10062;51.052;13.756;2024-03-08T09:35:30;29.10;;;16.37;;
19804;SDS011;10062;51.052;13.756;2024-03-08T09:38:03;30.93;;;17.20;;
19804;SDS011;10062;51.052;13.756;2024-03-08T09:40:35;28.20;;;15.70;;
19804;SDS011;10062;51.052;13.756;2024-03-08T09:43:07;26.67;;;15.73;;
19804;SDS011;10062;51.052;13.756;2024-03-08T09:45:40;27.27;;;16.63;;
19804;SDS011;10062;51.052;13.756;2024-03-08T09:48:13;28.67;;;16.77;;
19804;SDS011;10062;51.052;13.756;2024-03-08T09:50:47;25.67;;;15.40;;
19804;SDS011;10062;51.052;13.756;2024-03-08T09:53:19;29.30;;;16.37;;
19804;SDS011;10062;51.052;13.756;2024-03-08T09:55:52;25.23;;;16.40;;
19804;SDS011;10062;51.052;13.756;2024-03-08T09:58:24;26.53;;;15.13;;
19804;SDS011;10062;51.052;13.756;2024-03-08T10:01:25;28.00;;;16.30;;
19804;SDS011;10062;51.052;13.756;2024-03-08T10:03:57;22.53;;;14.40;;
19804;SDS011;10062;51.052;13.756;2024-03-08T10:06:29;25.10;;;14.43;;
19804;SDS011;10062;51.052;13.756;2024-03-08T10:09:01;24.77;;;14.80;;
19804;SDS011;10062;51.052;13.756;2024-03-08T10:11:34;27.43;;;14.77;;
19804;SDS011;10062;51.052;13.756;2024-03-08T10:14:07;21.33;;;12.63;;
19804;SDS011;10062;51.052;13.756;2024-03-08T10:16:41;17.03;;;10.33;;
19804;SDS011;10062;51.052;13.756;2024-03-08T10:19:14;25.33;;;13.87;;
19804;SDS011;10062;51.052;13.756;2024-03-08T10:21:47;26.73;;;14.93;;
19804;SDS011;10062;51.052;13.756;2024-03-08T10:24:20;24.97;;;15.33;;
19804;SDS011;10062;51.052;13.756;2024-03-08T10:26:53;26.13;;;14.47;;
19804;SDS011;10062;51.052;13.756;2024-03-08T10:29:25;27.30;;;15.87;;
19804;SDS011;10062;51.052;13.756;2024-03-08T10:32:00;20.60;;;14.37;;
19804;SDS011;10062;51.052;13.756;2024-03-08T10:34:35;25.80;;;15.67;;
19804;SDS011;10062;51.052;13.756;2024-03-08T10:37:07;26.07;;;16.10;;
19804;SDS011;10062;51.052;13.756;2024-03-08T10:39:49;23.60;;;14.70;;
19804;SDS011;10062;51.052;13.756;2024-03-08T10:42:29;25.30;;;14.87;;
19804;SDS011;10062;51.052;13.756;2024-03-08T10:45:05;23.70;;;14.50;;
19804;SDS011;10062;51.052;13.756;2024-03-08T10:47:40;23.60;;;16.10;;
19804;SDS011;10062;51.052;13.756;2024-03-08T10:50:16;26.80;;;16.77;;
19804;SDS011;10062;51.052;13.756;2024-03-08T10:52:51;26.63;;;15.03;;
19804;SDS011;10062;51.052;13.756;2024-03-08T10:55:23;24.57;;;14.37;;
19804;SDS011;10062;51.052;13.756;2024-03-08T10:57:56;25.83;;;15.13;;
19804;SDS011;10062;51.052;13.756;2024-03-08T11:00:28;24.10;;;15.70;;
19804;SDS011;10062;51.052;13.756;2024-03-08T11:03:03;27.27;;;15.47;;
19804;SDS011;10062;51.052;13.756;2024-03-08T11:05:36;25.57;;;14.70;;
19804;SDS011;10062;51.052;13.756;2024-03-08T11:08:16;25.47;;;14.93;;
19804;SDS011;10062;51.052;13.756;2024-03-08T11:10:49;27.57;;;16.17;;
19804;SDS011;10062;51.052;13.756;2024-03-08T11:13:35;23.03;;;14.10;;
19804;SDS011;10062;51.052;13.756;2024-03-08T11:16:07;22.57;;;13.20;;
19804;SDS011;10062;51.052;13.756;2024-03-08T11:18:40;26.03;;;15.80;;
19804;SDS011;10062;51.052;13.756;2024-03-08T11:21:12;25.57;;;16.00;;
19804;SDS011;10062;51.052;13.756;2024-03-08T11:23:45;27.30;;;14.90;;
19804;SDS011;10062;51.052;13.756;2024-03-08T11:26:30;23.63;;;12.80;;
19804;SDS011;10062;51.052;13.756;2024-03-08T11:31:49;24.20;;;14.13;;
19804;SDS011;10062;51.052;13.756;2024-03-08T11:34:22;24.37;;;14.77;;
19804;SDS011;10062;51.052;13.756;2024-03-08T11:36:55;23.87;;;13.87;;
19804;SDS011;10062;51.052;13.756;2024-03-08T11:39:27;20.70;;;13.50;;
19804;SDS011;10062;51.052;13.756;2024-03-08T11:42:00;23.30;;;14.73;;
19804;SDS011;10062;51.052;13.756;2024-03-08T11:44:32;25.00;;;14.47;;
19804;SDS011;10062;51.052;13.756;2024-03-08T11:47:08;25.97;;;14.10;;
19804;SDS011;10062;51.052;13.756;2024-03-08T11:49:42;23.60;;;14.00;;
19804;SDS011;10062;51.052;13.756;2024-03-08T11:52:17;21.47;;;12.07;;
19804;SDS011;10062;51.052;13.756;2024-03-08T11:54:51;22.67;;;11.43;;
19804;SDS011;10062;51.052;13.756;2024-03-08T11:57:24;22.20;;;12.50;;
19804;SDS011;10062;51.052;13.756;2024-03-08T11:59:58;21.80;;;12.57;;
19804;SDS011;10062;51.052;13.756;2024-03-08T12:02:38;18.87;;;9.23;;
19804;SDS011;10062;51.052;13.756;2024-03-08T12:05:13;23.03;;;12.93;;
19804;SDS011;10062;51.052;13.756;2024-03-08T12:07:53;19.43;;;11.50;;
19804;SDS011;10062;51.052;13.756;2024-03-08T12:10:28;19.30;;;11.77;;
19804;SDS011;10062;51.052;13.756;2024-03-08T12:12:59;20.77;;;11.83;;
19804;SDS011;10062;51.052;13.756;2024-03-08T12:15:33;17.20;;;9.43;;
19804;SDS011;10062;51.052;13.756;2024-03-08T12:18:05;17.60;;;11.10;;
19804;SDS011;10062;51.052;13.756;2024-03-08T12:20:39;16.93;;;11.10;;
19804;SDS011;10062;51.052;13.756;2024-03-08T12:23:14;18.07;;;10.77;;
19804;SDS011;10062;51.052;13.756;2024-03-08T12:25:46;22.77;;;10.83;;
19804;SDS011;10062;51.052;13.756;2024-03-08T12:28:19;8.60;;;5.40;;
19804;SDS011;10062;51.052;13.756;2024-03-08T12:30:51;19.00;;;9.93;;
19804;SDS011;10062;51.052;13.756;2024-03-08T12:33:24;16.87;;;10.90;;
19804;SDS011;10062;51.052;13.756;2024-03-08T12:35:58;20.23;;;10.73;;
19804;SDS011;10062;51.052;13.756;2024-03-08T12:38:30;20.03;;;10.27;;
19804;SDS011;10062;51.052;13.756;2024-03-08T12:41:02;18.00;;;11.17;;
19804;SDS011;10062;51.052;13.756;2024-03-08T12:43:34;17.77;;;10.17;;
19804;SDS011;10062;51.052;13.756;2024-03-08T12:46:07;18.07;;;10.63;;
19804;SDS011;10062;51.052;13.756;2024-03-08T12:48:39;17.77;;;9.40;;
19804;SDS011;10062;51.052;13.756;2024-03-08T12:51:12;15.33;;;10.10;;
19804;SDS011;10062;51.052;13.756;2024-03-08T12:53:46;19.70;;;11.37;;
19804;SDS011;10062;51.052;13.756;2024-03-08T12:56:20;18.27;;;11.03;;
19804;SDS011;10062;51.052;13.756;2024-03-08T12:59:00;19.17;;;10.27;;
19804;SDS011;10062;51.052;13.756;2024-03-08T13:01:32;17.13;;;10.67;;
19804;SDS011;10062;51.052;13.756;2024-03-08T13:04:07;19.57;;;11.13;;
19804;SDS011;10062;51.052;13.756;2024-03-08T13:06:42;17.07;;;10.53;;
19804;SDS011;10062;51.052;13.756;2024-03-08T13:09:16;18.27;;;10.40;;
19804;SDS011;10062;51.052;13.756;2024-03-08T13:11:50;20.30;;;10.90;;
19804;SDS011;10062;51.052;13.756;2024-03-08T13:14:23;19.53;;;11.60;;
19804;SDS011;10062;51.052;13.756;2024-03-08T13:16:55;17.00;;;10.10;;
19804;SDS011;10062;51.052;13.756;2024-03-08T13:19:29;17.47;;;10.03;;
19804;SDS011;10062;51.052;13.756;2024-03-08T13:22:02;17.93;;;10.37;;
19804;SDS011;10062;51.052;13.756;2024-03-08T13:24:35;17.50;;;10.17;;
19804;SDS011;10062;51.052;13.756;2024-03-08T13:27:07;19.07;;;11.17;;
19804;SDS011;10062;51.052;13.756;2024-03-08T13:29:49;19.00;;;11.33;;
19804;SDS011;10062;51.052;13.756;2024-03-08T13:32:21;20.77;;;10.43;;
19804;SDS011;10062;51.052;13.756;2024-03-08T13:34:54;18.50;;;11.10;;
19804;SDS011;10062;51.052;13.756;2024-03-08T13:37:27;17.00;;;10.60;;
19804;SDS011;10062;51.052;13.756;2024-03-08T13:39:59;17.30;;;10.70;;
19804;SDS011;10062;51.052;13.756;2024-03-08T13:42:31;16.27;;;10.13;;
19804;SDS011;10062;51.052;13.756;2024-03-08T13:45:04;16.67;;;10.27;;
19804;SDS011;10062;51.052;13.756;2024-03-08T13:47:37;19.20;;;11.03;;
19804;SDS011;10062;51.052;13.756;2024-03-08T13:50:09;18.53;;;9.03;;
19804;SDS011;10062;51.052;13.756;2024-03-08T13:52:44;17.47;;;9.87;;
19804;SDS011;10062;51.052;13.756;2024-03-08T13:55:15;17.20;;;9.83;;
19804;SDS011;10062;51.052;13.756;2024-03-08T13:57:47;13.80;;;8.73;;
19804;SDS011;10062;51.052;13.756;2024-03-08T14:00:21;14.67;;;8.73;;
19804;SDS011;10062;51.052;13.756;2024-03-08T14:02:55;14.00;;;8.77;;
19804;SDS011;10062;51.052;13.756;2024-03-08T14:05:28;13.03;;;8.47;;
19804;SDS011;10062;51.052;13.756;2024-03-08T14:08:06;14.60;;;9.00;;
19804;SDS011;10062;51.052;13.756;2024-03-08T14:10:38;17.47;;;10.97;;
19804;SDS011;10062;51.052;13.756;2024-03-08T14:13:12;17.73;;;9.90;;
19804;SDS011;10062;51.052;13.756;2024-03-08T14:15:46;17.43;;;9.57;;
19804;SDS011;10062;51.052;13.756;2024-03-08T14:18:18;15.03;;;10.17;;
19804;SDS011;10062;51.052;13.756;2024-03-08T14:20:50;17.47;;;10.07;;
19804;SDS011;10062;51.052;13.756;2024-03-08T14:23:23;15.80;;;8.47;;
19804;SDS011;10062;51.052;13.756;2024-03-08T14:25:57;15.73;;;10.63;;
19804;SDS011;10062;51.052;13.756;2024-03-08T14:28:29;19.63;;;11.27;;
19804;SDS011;10062;51.052;13.756;2024-03-08T14:31:02;14.93;;;8.67;;
19804;SDS011;10062;51.052;13.756;2024-03-08T14:33:41;15.00;;;8.33;;
19804;SDS011;10062;51.052;13.756;2024-03-08T14:36:13;12.33;;;7.07;;
19804;SDS011;10062;51.052;13.756;2024-03-08T14:38:48;13.80;;;7.80;;
19804;SDS011;10062;51.052;13.756;2024-03-08T14:41:20;15.00;;;8.00;;
19804;SDS011;10062;51.052;13.756;2024-03-08T14:47:39;14.43;;;7.30;;
19804;SDS011;10062;51.052;13.756;2024-03-08T14:50:12;11.27;;;7.13;;